Ward, Pennsylvania
Current Conditions -  °F | °C
As of 1:55 AM on Monday 24 Nov 2014 (Local Time) from KN38 Reporting Station
Light Rain Light Rain  
Wind Chill: 41°   Ceiling: 500
Heat Index: 46°   Visibility: 3mi
Dew Point: 45°   Wind: 13mph
Humidity: 93%   Direction: 150°SSE
Pressure: 29.6"   Gusts: 18mph
Location:  41.669°N, 76.8999°W
Report Text: KN38 240655Z AUTO 15011G16KT 3SM -RA OVC005 08/07 A2960 RMK AO2 P0008
Loading
Personal Weather Stations






























Interactive Weather Map New forecast layout! Learn more

10-Day Weather Forecast

Advertisements
Track Severe Weather on mobile